sensor_id;sensor_type;location;lat;lon;timestamp;temperature;humidity
14008;DHT22;61651;45.508;12.232;2022-09-27T00:01:45;19.20;99.90
14008;DHT22;61651;45.508;12.232;2022-09-27T00:04:47;19.20;99.90
14008;DHT22;61651;45.508;12.232;2022-09-27T00:07:49;19.20;99.90
14008;DHT22;61651;45.508;12.232;2022-09-27T00:10:59;19.30;99.90
14008;DHT22;61651;45.508;12.232;2022-09-27T00:14:01;19.30;99.90
14008;DHT22;61651;45.508;12.232;2022-09-27T00:17:03;19.30;99.90
14008;DHT22;61651;45.508;12.232;2022-09-27T00:20:07;19.30;99.90
14008;DHT22;61651;45.508;12.232;2022-09-27T00:23:09;19.20;99.90
14008;DHT22;61651;45.508;12.232;2022-09-27T00:26:12;19.20;99.90
14008;DHT22;61651;45.508;12.232;2022-09-27T00:29:16;19.30;99.90
14008;DHT22;61651;45.508;12.232;2022-09-27T00:32:18;19.30;99.90
14008;DHT22;61651;45.508;12.232;2022-09-27T00:35:20;19.30;99.90
14008;DHT22;61651;45.508;12.232;2022-09-27T00:38:22;19.30;99.90
14008;DHT22;61651;45.508;12.232;2022-09-27T00:41:28;19.30;99.90
14008;DHT22;61651;45.508;12.232;2022-09-27T00:45:03;19.30;99.90
14008;DHT22;61651;45.508;12.232;2022-09-27T00:48:05;19.10;99.90
14008;DHT22;61651;45.508;12.232;2022-09-27T00:51:08;19.10;99.90
14008;DHT22;61651;45.508;12.232;2022-09-27T00:54:12;19.00;99.90
14008;DHT22;61651;45.508;12.232;2022-09-27T00:57:18;19.10;99.90
14008;DHT22;61651;45.508;12.232;2022-09-27T01:00:22;19.00;99.90
14008;DHT22;61651;45.508;12.232;2022-09-27T01:03:30;19.00;99.90
14008;DHT22;61651;45.508;12.232;2022-09-27T01:06:33;19.10;99.90
14008;DHT22;61651;45.508;12.232;2022-09-27T01:09:35;19.10;99.90
14008;DHT22;61651;45.508;12.232;2022-09-27T01:12:48;19.10;99.90
14008;DHT22;61651;45.508;12.232;2022-09-27T01:15:59;19.10;99.90
14008;DHT22;61651;45.508;12.232;2022-09-27T01:19:10;19.10;99.90
14008;DHT22;61651;45.508;12.232;2022-09-27T01:22:17;19.10;99.90
14008;DHT22;61651;45.508;12.232;2022-09-27T01:25:42;19.00;99.90
14008;DHT22;61651;45.508;12.232;2022-09-27T01:28:56;19.00;99.90
14008;DHT22;61651;45.508;12.232;2022-09-27T01:32:06;19.10;99.90
14008;DHT22;61651;45.508;12.232;2022-09-27T01:35:17;19.00;99.90
14008;DHT22;61651;45.508;12.232;2022-09-27T01:38:27;19.00;99.90
14008;DHT22;61651;45.508;12.232;2022-09-27T01:41:35;19.10;99.90
14008;DHT22;61651;45.508;12.232;2022-09-27T01:44:44;19.10;99.90
14008;DHT22;61651;45.508;12.232;2022-09-27T01:47:51;19.10;99.90
14008;DHT22;61651;45.508;12.232;2022-09-27T01:50:57;19.10;99.90
14008;DHT22;61651;45.508;12.232;2022-09-27T01:54:02;19.10;99.90
14008;DHT22;61651;45.508;12.232;2022-09-27T01:57:06;19.10;99.90
14008;DHT22;61651;45.508;12.232;2022-09-27T02:00:11;19.10;99.90
14008;DHT22;61651;45.508;12.232;2022-09-27T02:03:17;19.10;99.90
14008;DHT22;61651;45.508;12.232;2022-09-27T02:06:23;19.00;99.90
14008;DHT22;61651;45.508;12.232;2022-09-27T02:09:32;19.00;99.90
14008;DHT22;61651;45.508;12.232;2022-09-27T02:12:41;19.00;99.90
14008;DHT22;61651;45.508;12.232;2022-09-27T02:15:53;19.00;99.90
14008;DHT22;61651;45.508;12.232;2022-09-27T02:19:04;18.90;99.90
14008;DHT22;61651;45.508;12.232;2022-09-27T02:22:14;18.90;99.90
14008;DHT22;61651;45.508;12.232;2022-09-27T02:25:20;18.90;99.90
14008;DHT22;61651;45.508;12.232;2022-09-27T02:28:26;18.90;99.90
14008;DHT22;61651;45.508;12.232;2022-09-27T02:31:31;18.90;99.90
14008;DHT22;61651;45.508;12.232;2022-09-27T02:34:35;18.90;99.90
14008;DHT22;61651;45.508;12.232;2022-09-27T02:37:39;18.90;99.90
14008;DHT22;61651;45.508;12.232;2022-09-27T02:40:43;18.90;99.90
14008;DHT22;61651;45.508;12.232;2022-09-27T02:43:48;18.90;99.90
14008;DHT22;61651;45.508;12.232;2022-09-27T02:47:07;18.80;99.90
14008;DHT22;61651;45.508;12.232;2022-09-27T02:50:30;18.80;99.90
14008;DHT22;61651;45.508;12.232;2022-09-27T02:53:43;18.80;99.90
14008;DHT22;61651;45.508;12.232;2022-09-27T02:56:56;18.80;99.90
14008;DHT22;61651;45.508;12.232;2022-09-27T03:00:05;18.70;99.90
14008;DHT22;61651;45.508;12.232;2022-09-27T03:03:13;18.70;99.90
14008;DHT22;61651;45.508;12.232;2022-09-27T03:06:18;18.70;99.90
14008;DHT22;61651;45.508;12.232;2022-09-27T03:09:23;18.70;99.90
14008;DHT22;61651;45.508;12.232;2022-09-27T03:12:25;18.70;99.90
14008;DHT22;61651;45.508;12.232;2022-09-27T03:15:27;18.50;99.90
14008;DHT22;61651;45.508;12.232;2022-09-27T03:18:29;18.60;99.90
14008;DHT22;61651;45.508;12.232;2022-09-27T03:21:32;18.70;99.90
14008;DHT22;61651;45.508;12.232;2022-09-27T03:24:35;18.70;99.90
14008;DHT22;61651;45.508;12.232;2022-09-27T03:27:37;18.70;99.90
14008;DHT22;61651;45.508;12.232;2022-09-27T03:30:39;18.70;99.90
14008;DHT22;61651;45.508;12.232;2022-09-27T03:33:41;18.70;99.90
14008;DHT22;61651;45.508;12.232;2022-09-27T03:36:44;18.70;99.90
14008;DHT22;61651;45.508;12.232;2022-09-27T03:39:46;18.60;99.90
14008;DHT22;61651;45.508;12.232;2022-09-27T03:42:48;18.60;99.90
14008;DHT22;61651;45.508;12.232;2022-09-27T03:45:50;18.60;99.90
14008;DHT22;61651;45.508;12.232;2022-09-27T03:48:53;18.50;99.90
14008;DHT22;61651;45.508;12.232;2022-09-27T03:51:56;18.60;99.90
14008;DHT22;61651;45.508;12.232;2022-09-27T03:54:58;18.60;99.90
14008;DHT22;61651;45.508;12.232;2022-09-27T03:58:00;18.60;99.90
14008;DHT22;61651;45.508;12.232;2022-09-27T04:01:02;18.50;99.90
14008;DHT22;61651;45.508;12.232;2022-09-27T04:04:04;18.50;99.90
14008;DHT22;61651;45.508;12.232;2022-09-27T04:07:08;18.60;99.90
14008;DHT22;61651;45.508;12.232;2022-09-27T04:10:10;18.70;99.90
14008;DHT22;61651;45.508;12.232;2022-09-27T04:13:12;18.60;99.90
14008;DHT22;61651;45.508;12.232;2022-09-27T04:16:15;18.60;99.90
14008;DHT22;61651;45.508;12.232;2022-09-27T04:19:17;18.60;99.90
14008;DHT22;61651;45.508;12.232;2022-09-27T04:22:20;18.60;99.90
14008;DHT22;61651;45.508;12.232;2022-09-27T04:25:23;18.50;99.90
14008;DHT22;61651;45.508;12.232;2022-09-27T04:28:25;18.50;99.90
14008;DHT22;61651;45.508;12.232;2022-09-27T04:31:27;18.60;99.90
14008;DHT22;61651;45.508;12.232;2022-09-27T04:34:29;18.50;99.90
14008;DHT22;61651;45.508;12.232;2022-09-27T04:37:46;18.50;99.90
14008;DHT22;61651;45.508;12.232;2022-09-27T04:40:48;18.60;99.90
14008;DHT22;61651;45.508;12.232;2022-09-27T04:43:51;18.60;99.90
14008;DHT22;61651;45.508;12.232;2022-09-27T04:46:54;18.50;99.90
14008;DHT22;61651;45.508;12.232;2022-09-27T04:49:56;18.50;99.90
14008;DHT22;61651;45.508;12.232;2022-09-27T04:52:59;18.40;99.90
14008;DHT22;61651;45.508;12.232;2022-09-27T04:56:01;18.30;99.90
14008;DHT22;61651;45.508;12.232;2022-09-27T04:59:05;18.30;99.90
14008;DHT22;61651;45.508;12.232;2022-09-27T05:02:07;18.30;99.90
14008;DHT22;61651;45.508;12.232;2022-09-27T05:05:09;18.40;99.90
14008;DHT22;61651;45.508;12.232;2022-09-27T05:08:13;18.40;99.90
14008;DHT22;61651;45.508;12.232;2022-09-27T05:11:15;18.40;99.90
14008;DHT22;61651;45.508;12.232;2022-09-27T05:14:17;18.30;99.90
14008;DHT22;61651;45.508;12.232;2022-09-27T05:17:20;18.40;99.90
14008;DHT22;61651;45.508;12.232;2022-09-27T05:20:23;18.40;99.90
14008;DHT22;61651;45.508;12.232;2022-09-27T05:23:27;18.50;99.90
14008;DHT22;61651;45.508;12.232;2022-09-27T05:26:29;18.50;99.90
14008;DHT22;61651;45.508;12.232;2022-09-27T05:29:31;18.30;99.90
14008;DHT22;61651;45.508;12.232;2022-09-27T05:32:33;18.40;99.90
14008;DHT22;61651;45.508;12.232;2022-09-27T05:35:35;18.40;99.90
14008;DHT22;61651;45.508;12.232;2022-09-27T05:38:38;18.50;99.90
14008;DHT22;61651;45.508;12.232;2022-09-27T05:41:41;18.50;99.90
14008;DHT22;61651;45.508;12.232;2022-09-27T05:44:43;18.40;99.90
14008;DHT22;61651;45.508;12.232;2022-09-27T05:47:54;18.50;99.90
14008;DHT22;61651;45.508;12.232;2022-09-27T05:50:56;18.50;99.90
14008;DHT22;61651;45.508;12.232;2022-09-27T05:53:59;18.60;99.90
14008;DHT22;61651;45.508;12.232;2022-09-27T05:57:02;18.60;99.90
14008;DHT22;61651;45.508;12.232;2022-09-27T06:00:06;18.60;99.90
14008;DHT22;61651;45.508;12.232;2022-09-27T06:03:10;18.60;99.90
14008;DHT22;61651;45.508;12.232;2022-09-27T06:06:13;18.50;99.90
14008;DHT22;61651;45.508;12.232;2022-09-27T06:09:17;18.50;99.90
14008;DHT22;61651;45.508;12.232;2022-09-27T06:12:19;18.50;99.90
14008;DHT22;61651;45.508;12.232;2022-09-27T06:15:21;18.50;99.90
14008;DHT22;61651;45.508;12.232;2022-09-27T06:18:23;18.50;99.90
14008;DHT22;61651;45.508;12.232;2022-09-27T06:21:25;18.60;99.90
14008;DHT22;61651;45.508;12.232;2022-09-27T06:24:29;18.60;99.90
14008;DHT22;61651;45.508;12.232;2022-09-27T06:27:31;18.50;99.90
14008;DHT22;61651;45.508;12.232;2022-09-27T06:30:37;18.40;99.90
14008;DHT22;61651;45.508;12.232;2022-09-27T06:33:40;18.30;99.90
14008;DHT22;61651;45.508;12.232;2022-09-27T06:36:42;18.30;99.90
14008;DHT22;61651;45.508;12.232;2022-09-27T06:39:45;18.30;99.90
14008;DHT22;61651;45.508;12.232;2022-09-27T06:42:48;18.20;99.90
14008;DHT22;61651;45.508;12.232;2022-09-27T06:45:50;18.20;99.90
14008;DHT22;61651;45.508;12.232;2022-09-27T06:48:52;18.40;99.90
14008;DHT22;61651;45.508;12.232;2022-09-27T06:51:56;18.40;99.90
14008;DHT22;61651;45.508;12.232;2022-09-27T06:54:59;18.60;99.90
14008;DHT22;61651;45.508;12.232;2022-09-27T06:58:02;18.80;99.90
14008;DHT22;61651;45.508;12.232;2022-09-27T07:01:30;18.80;99.90
14008;DHT22;61651;45.508;12.232;2022-09-27T07:04:32;19.00;99.90
14008;DHT22;61651;45.508;12.232;2022-09-27T07:07:33;19.00;99.90
14008;DHT22;61651;45.508;12.232;2022-09-27T07:10:38;19.00;99.90
14008;DHT22;61651;45.508;12.232;2022-09-27T07:13:40;19.10;99.90
14008;DHT22;61651;45.508;12.232;2022-09-27T07:16:44;19.10;99.90
14008;DHT22;61651;45.508;12.232;2022-09-27T07:19:46;19.20;99.90
14008;DHT22;61651;45.508;12.232;2022-09-27T07:22:48;19.20;99.90
14008;DHT22;61651;45.508;12.232;2022-09-27T07:25:51;19.10;99.90
14008;DHT22;61651;45.508;12.232;2022-09-27T07:28:53;19.10;99.90
14008;DHT22;61651;45.508;12.232;2022-09-27T07:31:56;19.20;99.90
14008;DHT22;61651;45.508;12.232;2022-09-27T07:34:58;19.30;99.90
14008;DHT22;61651;45.508;12.232;2022-09-27T07:38:00;19.40;99.90
14008;DHT22;61651;45.508;12.232;2022-09-27T07:41:09;19.40;99.90
14008;DHT22;61651;45.508;12.232;2022-09-27T07:44:12;19.50;99.90
14008;DHT22;61651;45.508;12.232;2022-09-27T07:47:16;19.60;99.90
14008;DHT22;61651;45.508;12.232;2022-09-27T07:50:19;19.70;99.90
14008;DHT22;61651;45.508;12.232;2022-09-27T07:53:21;19.80;99.90
14008;DHT22;61651;45.508;12.232;2022-09-27T07:56:25;19.90;99.90
14008;DHT22;61651;45.508;12.232;2022-09-27T07:59:27;20.00;99.90
14008;DHT22;61651;45.508;12.232;2022-09-27T08:02:28;20.20;99.90
14008;DHT22;61651;45.508;12.232;2022-09-27T08:05:33;20.30;99.90
14008;DHT22;61651;45.508;12.232;2022-09-27T08:08:36;20.10;99.90
14008;DHT22;61651;45.508;12.232;2022-09-27T08:11:39;19.90;99.90
14008;DHT22;61651;45.508;12.232;2022-09-27T08:14:41;19.60;99.90
14008;DHT22;61651;45.508;12.232;2022-09-27T08:17:43;19.50;99.90
14008;DHT22;61651;45.508;12.232;2022-09-27T08:20:45;19.70;99.90
14008;DHT22;61651;45.508;12.232;2022-09-27T08:23:47;19.90;99.90
14008;DHT22;61651;45.508;12.232;2022-09-27T08:26:50;20.10;99.90
14008;DHT22;61651;45.508;12.232;2022-09-27T08:29:52;20.20;99.90
14008;DHT22;61651;45.508;12.232;2022-09-27T08:32:55;20.20;99.90
14008;DHT22;61651;45.508;12.232;2022-09-27T08:35:57;20.30;99.90
14008;DHT22;61651;45.508;12.232;2022-09-27T08:38:58;20.50;99.90
14008;DHT22;61651;45.508;12.232;2022-09-27T08:42:07;20.60;99.90
14008;DHT22;61651;45.508;12.232;2022-09-27T08:45:17;20.80;99.90
14008;DHT22;61651;45.508;12.232;2022-09-27T08:48:20;21.00;99.90
14008;DHT22;61651;45.508;12.232;2022-09-27T08:51:27;21.20;99.90
14008;DHT22;61651;45.508;12.232;2022-09-27T08:54:30;21.20;99.90
14008;DHT22;61651;45.508;12.232;2022-09-27T08:57:35;21.30;99.90
14008;DHT22;61651;45.508;12.232;2022-09-27T09:00:38;21.40;99.90
14008;DHT22;61651;45.508;12.232;2022-09-27T09:03:45;21.50;99.90
14008;DHT22;61651;45.508;12.232;2022-09-27T09:06:53;21.50;99.90
14008;DHT22;61651;45.508;12.232;2022-09-27T09:10:03;21.50;99.90
14008;DHT22;61651;45.508;12.232;2022-09-27T09:13:14;21.40;99.90
14008;DHT22;61651;45.508;12.232;2022-09-27T09:16:27;21.40;99.90
14008;DHT22;61651;45.508;12.232;2022-09-27T09:19:43;21.20;99.90
14008;DHT22;61651;45.508;12.232;2022-09-27T09:22:56;21.20;99.90
14008;DHT22;61651;45.508;12.232;2022-09-27T09:26:06;21.30;99.90
14008;DHT22;61651;45.508;12.232;2022-09-27T09:29:23;21.20;99.90
14008;DHT22;61651;45.508;12.232;2022-09-27T09:32:33;21.20;99.90
14008;DHT22;61651;45.508;12.232;2022-09-27T09:35:41;21.10;99.90
14008;DHT22;61651;45.508;12.232;2022-09-27T09:38:48;21.20;99.90
14008;DHT22;61651;45.508;12.232;2022-09-27T09:42:02;21.20;99.90
14008;DHT22;61651;45.508;12.232;2022-09-27T09:45:14;21.20;99.90
14008;DHT22;61651;45.508;12.232;2022-09-27T09:48:24;21.30;99.90
14008;DHT22;61651;45.508;12.232;2022-09-27T09:51:32;21.60;99.90
14008;DHT22;61651;45.508;12.232;2022-09-27T09:54:38;21.70;99.90
14008;DHT22;61651;45.508;12.232;2022-09-27T09:57:48;21.60;99.90
14008;DHT22;61651;45.508;12.232;2022-09-27T10:00:58;21.10;99.90
14008;DHT22;61651;45.508;12.232;2022-09-27T10:04:01;21.30;99.90
14008;DHT22;61651;45.508;12.232;2022-09-27T10:07:04;21.50;99.90
14008;DHT22;61651;45.508;12.232;2022-09-27T10:10:07;21.60;99.90
14008;DHT22;61651;45.508;12.232;2022-09-27T10:13:14;21.60;99.90
14008;DHT22;61651;45.508;12.232;2022-09-27T10:16:19;21.50;99.90
14008;DHT22;61651;45.508;12.232;2022-09-27T10:19:25;21.30;99.90
14008;DHT22;61651;45.508;12.232;2022-09-27T10:22:34;21.60;99.90
14008;DHT22;61651;45.508;12.232;2022-09-27T10:25:45;21.50;99.90
14008;DHT22;61651;45.508;12.232;2022-09-27T10:28:49;21.30;99.90
14008;DHT22;61651;45.508;12.232;2022-09-27T10:31:53;21.30;99.90
14008;DHT22;61651;45.508;12.232;2022-09-27T10:34:55;21.40;99.90
14008;DHT22;61651;45.508;12.232;2022-09-27T10:38:18;21.30;99.90
14008;DHT22;61651;45.508;12.232;2022-09-27T10:41:24;21.40;99.90
14008;DHT22;61651;45.508;12.232;2022-09-27T10:44:29;21.30;99.90
14008;DHT22;61651;45.508;12.232;2022-09-27T10:47:33;21.10;99.90
14008;DHT22;61651;45.508;12.232;2022-09-27T10:50:36;21.60;99.90
14008;DHT22;61651;45.508;12.232;2022-09-27T10:53:44;21.60;99.90
14008;DHT22;61651;45.508;12.232;2022-09-27T10:56:54;21.80;99.90
14008;DHT22;61651;45.508;12.232;2022-09-27T10:59:58;21.60;99.90
14008;DHT22;61651;45.508;12.232;2022-09-27T11:03:05;21.80;99.90
14008;DHT22;61651;45.508;12.232;2022-09-27T11:06:23;22.10;99.90
14008;DHT22;61651;45.508;12.232;2022-09-27T11:09:28;22.50;99.90
14008;DHT22;61651;45.508;12.232;2022-09-27T11:12:31;22.90;99.90
14008;DHT22;61651;45.508;12.232;2022-09-27T11:15:55;22.90;99.90
14008;DHT22;61651;45.508;12.232;2022-09-27T11:19:07;23.00;99.90
14008;DHT22;61651;45.508;12.232;2022-09-27T11:22:30;23.20;99.90
14008;DHT22;61651;45.508;12.232;2022-09-27T11:25:40;23.40;99.90
14008;DHT22;61651;45.508;12.232;2022-09-27T11:28:53;23.50;99.90
14008;DHT22;61651;45.508;12.232;2022-09-27T11:32:10;24.00;99.90
14008;DHT22;61651;45.508;12.232;2022-09-27T11:35:29;24.20;99.90
14008;DHT22;61651;45.508;12.232;2022-09-27T11:38:41;23.60;99.90
14008;DHT22;61651;45.508;12.232;2022-09-27T11:41:59;23.70;99.90
14008;DHT22;61651;45.508;12.232;2022-09-27T11:45:19;23.60;99.90
14008;DHT22;61651;45.508;12.232;2022-09-27T11:48:36;23.70;99.90
14008;DHT22;61651;45.508;12.232;2022-09-27T11:52:12;23.90;99.90
14008;DHT22;61651;45.508;12.232;2022-09-27T11:55:24;23.80;99.90
14008;DHT22;61651;45.508;12.232;2022-09-27T11:58:33;24.10;99.90
14008;DHT22;61651;45.508;12.232;2022-09-27T12:01:44;24.60;99.90
14008;DHT22;61651;45.508;12.232;2022-09-27T12:05:00;24.90;99.90
14008;DHT22;61651;45.508;12.232;2022-09-27T12:08:18;25.30;99.90
14008;DHT22;61651;45.508;12.232;2022-09-27T12:11:26;25.80;99.90
14008;DHT22;61651;45.508;12.232;2022-09-27T12:14:35;26.20;99.90
14008;DHT22;61651;45.508;12.232;2022-09-27T12:17:41;26.20;99.90
14008;DHT22;61651;45.508;12.232;2022-09-27T12:20:45;26.30;99.90
14008;DHT22;61651;45.508;12.232;2022-09-27T12:23:49;26.60;99.90
14008;DHT22;61651;45.508;12.232;2022-09-27T12:26:55;26.80;99.90
14008;DHT22;61651;45.508;12.232;2022-09-27T12:29:58;27.00;99.90
14008;DHT22;61651;45.508;12.232;2022-09-27T12:33:07;26.60;99.90
14008;DHT22;61651;45.508;12.232;2022-09-27T12:36:15;26.70;99.90
14008;DHT22;61651;45.508;12.232;2022-09-27T12:39:21;26.70;99.90
14008;DHT22;61651;45.508;12.232;2022-09-27T12:42:28;26.90;99.90
14008;DHT22;61651;45.508;12.232;2022-09-27T12:45:40;27.30;99.90
14008;DHT22;61651;45.508;12.232;2022-09-27T12:48:49;27.50;99.90
14008;DHT22;61651;45.508;12.232;2022-09-27T12:51:56;27.90;99.90
14008;DHT22;61651;45.508;12.232;2022-09-27T12:55:18;28.00;99.90
14008;DHT22;61651;45.508;12.232;2022-09-27T13:02:14;27.80;99.90
14008;DHT22;61651;45.508;12.232;2022-09-27T13:12:35;28.20;99.90
14008;DHT22;61651;45.508;12.232;2022-09-27T13:15:42;28.10;99.90
14008;DHT22;61651;45.508;12.232;2022-09-27T13:18:56;27.90;99.90
14008;DHT22;61651;45.508;12.232;2022-09-27T13:22:01;27.40;99.90
14008;DHT22;61651;45.508;12.232;2022-09-27T13:29:10;26.90;99.90
14008;DHT22;61651;45.508;12.232;2022-09-27T13:32:22;26.90;99.90
14008;DHT22;61651;45.508;12.232;2022-09-27T13:35:25;27.10;99.90
14008;DHT22;61651;45.508;12.232;2022-09-27T13:38:27;27.70;99.90
14008;DHT22;61651;45.508;12.232;2022-09-27T13:41:36;28.30;99.90
14008;DHT22;61651;45.508;12.232;2022-09-27T13:48:09;27.90;99.90
14008;DHT22;61651;45.508;12.232;2022-09-27T13:51:30;27.50;99.90
14008;DHT22;61651;45.508;12.232;2022-09-27T13:54:39;27.20;99.90
14008;DHT22;61651;45.508;12.232;2022-09-27T13:57:48;27.00;99.90
14008;DHT22;61651;45.508;12.232;2022-09-27T14:00:57;26.80;99.90
14008;DHT22;61651;45.508;12.232;2022-09-27T14:04:02;26.60;99.90
14008;DHT22;61651;45.508;12.232;2022-09-27T14:07:11;26.50;99.90
14008;DHT22;61651;45.508;12.232;2022-09-27T14:10:16;26.30;99.90
14008;DHT22;61651;45.508;12.232;2022-09-27T14:13:21;26.20;99.90
14008;DHT22;61651;45.508;12.232;2022-09-27T14:16:30;26.10;99.90
14008;DHT22;61651;45.508;12.232;2022-09-27T14:19:38;26.10;99.90
14008;DHT22;61651;45.508;12.232;2022-09-27T14:22:41;25.90;99.90
14008;DHT22;61651;45.508;12.232;2022-09-27T14:25:46;25.90;99.90
14008;DHT22;61651;45.508;12.232;2022-09-27T14:28:49;25.90;99.90
14008;DHT22;61651;45.508;12.232;2022-09-27T14:32:03;25.90;99.90
14008;DHT22;61651;45.508;12.232;2022-09-27T14:35:09;25.90;99.90
14008;DHT22;61651;45.508;12.232;2022-09-27T14:38:32;26.00;99.90
14008;DHT22;61651;45.508;12.232;2022-09-27T14:41:35;26.10;99.90
14008;DHT22;61651;45.508;12.232;2022-09-27T14:44:42;26.10;99.90
14008;DHT22;61651;45.508;12.232;2022-09-27T14:47:47;26.10;99.90
14008;DHT22;61651;45.508;12.232;2022-09-27T14:50:54;26.40;99.90
14008;DHT22;61651;45.508;12.232;2022-09-27T14:54:00;26.80;99.90
14008;DHT22;61651;45.508;12.232;2022-09-27T14:57:06;27.10;99.90
14008;DHT22;61651;45.508;12.232;2022-09-27T15:00:17;27.40;99.90
14008;DHT22;61651;45.508;12.232;2022-09-27T15:03:25;27.90;99.90
14008;DHT22;61651;45.508;12.232;2022-09-27T15:06:29;28.20;99.90
14008;DHT22;61651;45.508;12.232;2022-09-27T15:09:31;28.60;99.90
14008;DHT22;61651;45.508;12.232;2022-09-27T15:12:33;28.70;99.90
14008;DHT22;61651;45.508;12.232;2022-09-27T15:15:37;28.80;99.90
14008;DHT22;61651;45.508;12.232;2022-09-27T15:18:42;29.00;99.90
14008;DHT22;61651;45.508;12.232;2022-09-27T15:21:45;29.10;99.90
14008;DHT22;61651;45.508;12.232;2022-09-27T15:24:47;29.10;99.90
14008;DHT22;61651;45.508;12.232;2022-09-27T15:27:53;29.20;99.90
14008;DHT22;61651;45.508;12.232;2022-09-27T15:30:56;29.20;99.90
14008;DHT22;61651;45.508;12.232;2022-09-27T15:34:01;29.10;99.90
14008;DHT22;61651;45.508;12.232;2022-09-27T15:37:05;29.00;99.90
14008;DHT22;61651;45.508;12.232;2022-09-27T15:44:37;28.80;99.90
14008;DHT22;61651;45.508;12.232;2022-09-27T15:48:04;28.40;99.90
14008;DHT22;61651;45.508;12.232;2022-09-27T15:51:37;28.00;99.90
14008;DHT22;61651;45.508;12.232;2022-09-27T15:54:40;27.60;99.90
14008;DHT22;61651;45.508;12.232;2022-09-27T15:57:42;27.20;99.90
14008;DHT22;61651;45.508;12.232;2022-09-27T16:00:54;26.90;99.90
14008;DHT22;61651;45.508;12.232;2022-09-27T16:03:59;26.70;99.90
14008;DHT22;61651;45.508;12.232;2022-09-27T16:07:05;26.40;99.90
14008;DHT22;61651;45.508;12.232;2022-09-27T16:10:13;26.20;99.90
14008;DHT22;61651;45.508;12.232;2022-09-27T16:13:17;25.90;99.90
14008;DHT22;61651;45.508;12.232;2022-09-27T16:16:20;25.80;99.90
14008;DHT22;61651;45.508;12.232;2022-09-27T16:19:23;25.60;99.90
14008;DHT22;61651;45.508;12.232;2022-09-27T16:22:28;25.50;99.90
14008;DHT22;61651;45.508;12.232;2022-09-27T16:25:32;25.30;99.90
14008;DHT22;61651;45.508;12.232;2022-09-27T16:28:37;25.20;99.90
14008;DHT22;61651;45.508;12.232;2022-09-27T16:31:40;25.10;99.90
14008;DHT22;61651;45.508;12.232;2022-09-27T16:34:42;24.90;99.90
14008;DHT22;61651;45.508;12.232;2022-09-27T16:37:46;24.80;99.90
14008;DHT22;61651;45.508;12.232;2022-09-27T16:40:48;24.70;99.90
14008;DHT22;61651;45.508;12.232;2022-09-27T16:43:50;24.60;99.90
14008;DHT22;61651;45.508;12.232;2022-09-27T16:46:51;24.50;99.90
14008;DHT22;61651;45.508;12.232;2022-09-27T16:49:53;24.40;99.90
14008;DHT22;61651;45.508;12.232;2022-09-27T16:53:14;24.30;99.90
14008;DHT22;61651;45.508;12.232;2022-09-27T16:56:16;24.10;99.90
14008;DHT22;61651;45.508;12.232;2022-09-27T16:59:18;24.00;99.90
14008;DHT22;61651;45.508;12.232;2022-09-27T17:02:20;23.80;99.90
14008;DHT22;61651;45.508;12.232;2022-09-27T17:05:23;23.60;99.90
14008;DHT22;61651;45.508;12.232;2022-09-27T17:08:27;23.50;99.90
14008;DHT22;61651;45.508;12.232;2022-09-27T17:11:29;23.40;99.90
14008;DHT22;61651;45.508;12.232;2022-09-27T17:14:31;23.30;99.90
14008;DHT22;61651;45.508;12.232;2022-09-27T17:17:33;23.10;99.90
14008;DHT22;61651;45.508;12.232;2022-09-27T17:20:35;23.00;99.90
14008;DHT22;61651;45.508;12.232;2022-09-27T17:23:38;22.80;99.90
14008;DHT22;61651;45.508;12.232;2022-09-27T17:26:41;22.70;99.90
14008;DHT22;61651;45.508;12.232;2022-09-27T17:29:43;22.60;99.90
14008;DHT22;61651;45.508;12.232;2022-09-27T17:32:44;22.40;99.90
14008;DHT22;61651;45.508;12.232;2022-09-27T17:35:46;22.30;99.90
14008;DHT22;61651;45.508;12.232;2022-09-27T17:38:50;22.10;99.90
14008;DHT22;61651;45.508;12.232;2022-09-27T17:41:52;22.00;99.90
14008;DHT22;61651;45.508;12.232;2022-09-27T18:13:33;21.40;99.90
14008;DHT22;61651;45.508;12.232;2022-09-27T18:16:42;21.30;99.90
14008;DHT22;61651;45.508;12.232;2022-09-27T18:19:45;21.30;99.90
14008;DHT22;61651;45.508;12.232;2022-09-27T18:22:47;21.30;99.90
14008;DHT22;61651;45.508;12.232;2022-09-27T18:25:52;21.30;99.90
14008;DHT22;61651;45.508;12.232;2022-09-27T18:29:02;21.20;99.90
14008;DHT22;61651;45.508;12.232;2022-09-27T18:32:08;21.10;99.90
14008;DHT22;61651;45.508;12.232;2022-09-27T18:35:10;21.10;99.90
14008;DHT22;61651;45.508;12.232;2022-09-27T18:38:13;21.10;99.90
14008;DHT22;61651;45.508;12.232;2022-09-27T18:41:18;21.00;99.90
14008;DHT22;61651;45.508;12.232;2022-09-27T18:44:22;21.00;99.90
14008;DHT22;61651;45.508;12.232;2022-09-27T18:47:26;21.00;99.90
14008;DHT22;61651;45.508;12.232;2022-09-27T18:50:34;21.00;99.90
14008;DHT22;61651;45.508;12.232;2022-09-27T18:53:37;21.00;99.90
14008;DHT22;61651;45.508;12.232;2022-09-27T18:56:40;20.50;99.90
14008;DHT22;61651;45.508;12.232;2022-09-27T18:59:45;20.10;99.90
14008;DHT22;61651;45.508;12.232;2022-09-27T19:02:49;19.40;99.90
14008;DHT22;61651;45.508;12.232;2022-09-27T19:05:58;19.60;99.90
14008;DHT22;61651;45.508;12.232;2022-09-27T19:09:00;19.30;99.90
14008;DHT22;61651;45.508;12.232;2022-09-27T19:12:04;19.20;99.90
14008;DHT22;61651;45.508;12.232;2022-09-27T19:15:12;19.10;99.90
14008;DHT22;61651;45.508;12.232;2022-09-27T19:18:16;19.00;99.90
14008;DHT22;61651;45.508;12.232;2022-09-27T19:21:23;19.00;99.90
14008;DHT22;61651;45.508;12.232;2022-09-27T19:24:28;19.10;99.90
14008;DHT22;61651;45.508;12.232;2022-09-27T19:27:34;19.10;99.90
14008;DHT22;61651;45.508;12.232;2022-09-27T19:30:44;19.20;99.90
14008;DHT22;61651;45.508;12.232;2022-09-27T19:33:47;19.20;99.90
14008;DHT22;61651;45.508;12.232;2022-09-27T19:36:55;19.30;99.90
14008;DHT22;61651;45.508;12.232;2022-09-27T19:39:57;19.30;99.90
14008;DHT22;61651;45.508;12.232;2022-09-27T19:43:02;19.40;99.90
14008;DHT22;61651;45.508;12.232;2022-09-27T19:46:13;19.40;99.90
14008;DHT22;61651;45.508;12.232;2022-09-27T19:49:16;19.40;99.90
14008;DHT22;61651;45.508;12.232;2022-09-27T19:52:20;19.40;99.90
14008;DHT22;61651;45.508;12.232;2022-09-27T19:55:24;19.30;99.90
14008;DHT22;61651;45.508;12.232;2022-09-27T19:58:27;19.40;99.90
14008;DHT22;61651;45.508;12.232;2022-09-27T20:01:34;19.40;99.90
14008;DHT22;61651;45.508;12.232;2022-09-27T20:04:37;19.40;99.90
14008;DHT22;61651;45.508;12.232;2022-09-27T20:07:42;19.40;99.90